sensor_id;sensor_type;location;lat;lon;timestamp;pressure;altitude;pressure_sealevel;temperature;humidity
32761;BME280;19126;47.472;7.850;2022-08-14T00:00:29;96225.88;;;15.56;85.05
32761;BME280;19126;47.472;7.850;2022-08-14T00:02:56;96227.09;;;15.53;86.15
32761;BME280;19126;47.472;7.850;2022-08-14T00:05:23;96224.78;;;15.38;88.03
32761;BME280;19126;47.472;7.850;2022-08-14T00:07:50;96228.88;;;15.34;87.30
32761;BME280;19126;47.472;7.850;2022-08-14T00:10:20;96219.41;;;15.19;89.32
32761;BME280;19126;47.472;7.850;2022-08-14T00:12:52;96215.94;;;15.19;89.34
32761;BME280;19126;47.472;7.850;2022-08-14T00:15:26;96206.22;;;15.13;88.10
32761;BME280;19126;47.472;7.850;2022-08-14T00:17:53;96209.88;;;15.12;88.15
32761;BME280;19126;47.472;7.850;2022-08-14T00:20:26;96209.50;;;15.08;91.09
32761;BME280;19126;47.472;7.850;2022-08-14T00:22:54;96209.59;;;14.94;93.30
32761;BME280;19126;47.472;7.850;2022-08-14T00:25:21;96204.31;;;14.88;93.67
32761;BME280;19126;47.472;7.850;2022-08-14T00:27:50;96205.78;;;14.84;93.42
32761;BME280;19126;47.472;7.850;2022-08-14T00:30:17;96206.00;;;14.82;93.21
32761;BME280;19126;47.472;7.850;2022-08-14T00:32:44;96202.53;;;14.82;92.99
32761;BME280;19126;47.472;7.850;2022-08-14T00:35:13;96199.72;;;14.76;94.25
32761;BME280;19126;47.472;7.850;2022-08-14T00:37:42;96197.28;;;14.68;95.57
32761;BME280;19126;47.472;7.850;2022-08-14T00:40:13;96186.53;;;14.63;94.24
32761;BME280;19126;47.472;7.850;2022-08-14T00:42:41;96184.72;;;14.63;92.68
32761;BME280;19126;47.472;7.850;2022-08-14T00:45:13;96188.75;;;14.66;92.28
32761;BME280;19126;47.472;7.850;2022-08-14T00:47:41;96179.41;;;14.63;94.13
32761;BME280;19126;47.472;7.850;2022-08-14T00:50:12;96168.47;;;14.53;94.81
32761;BME280;19126;47.472;7.850;2022-08-14T00:52:39;96180.88;;;14.46;97.04
32761;BME280;19126;47.472;7.850;2022-08-14T00:55:08;96177.88;;;14.42;96.92
32761;BME280;19126;47.472;7.850;2022-08-14T00:57:36;96184.00;;;14.36;97.18
32761;BME280;19126;47.472;7.850;2022-08-14T01:00:10;96174.03;;;14.31;97.26
32761;BME280;19126;47.472;7.850;2022-08-14T01:02:41;96172.03;;;14.27;97.57
32761;BME280;19126;47.472;7.850;2022-08-14T01:05:11;96172.88;;;14.20;97.87
32761;BME280;19126;47.472;7.850;2022-08-14T01:07:50;96171.03;;;14.21;97.14
32761;BME280;19126;47.472;7.850;2022-08-14T01:10:19;96173.69;;;14.14;99.22
32761;BME280;19126;47.472;7.850;2022-08-14T01:12:47;96173.09;;;14.05;100.00
32761;BME280;19126;47.472;7.850;2022-08-14T01:15:16;96168.44;;;14.01;100.00
32761;BME280;19126;47.472;7.850;2022-08-14T01:17:46;96164.78;;;13.95;100.00
32761;BME280;19126;47.472;7.850;2022-08-14T01:20:31;96160.53;;;13.94;100.00
32761;BME280;19126;47.472;7.850;2022-08-14T01:23:17;96158.13;;;13.92;100.00
32761;BME280;19126;47.472;7.850;2022-08-14T01:25:47;96151.81;;;13.94;100.00
32761;BME280;19126;47.472;7.850;2022-08-14T01:28:14;96155.06;;;13.89;100.00
32761;BME280;19126;47.472;7.850;2022-08-14T01:30:42;96154.88;;;13.84;100.00
32761;BME280;19126;47.472;7.850;2022-08-14T01:33:10;96147.78;;;13.84;100.00
32761;BME280;19126;47.472;7.850;2022-08-14T01:35:37;96148.97;;;13.82;100.00
32761;BME280;19126;47.472;7.850;2022-08-14T01:38:12;96136.00;;;13.80;100.00
32761;BME280;19126;47.472;7.850;2022-08-14T01:40:42;96142.09;;;13.74;100.00
32761;BME280;19126;47.472;7.850;2022-08-14T01:43:11;96139.47;;;13.67;100.00
32761;BME280;19126;47.472;7.850;2022-08-14T01:45:40;96126.31;;;13.60;100.00
32761;BME280;19126;47.472;7.850;2022-08-14T01:48:07;96129.13;;;13.59;100.00
32761;BME280;19126;47.472;7.850;2022-08-14T01:50:35;96121.22;;;13.59;100.00
32761;BME280;19126;47.472;7.850;2022-08-14T01:53:02;96113.28;;;13.59;100.00
32761;BME280;19126;47.472;7.850;2022-08-14T01:55:29;96110.88;;;13.57;100.00
32761;BME280;19126;47.472;7.850;2022-08-14T01:57:59;96109.47;;;13.48;100.00
32761;BME280;19126;47.472;7.850;2022-08-14T02:00:26;96101.34;;;13.50;100.00
32761;BME280;19126;47.472;7.850;2022-08-14T02:02:55;96097.88;;;13.42;100.00
32761;BME280;19126;47.472;7.850;2022-08-14T02:05:24;96091.19;;;13.33;100.00
32761;BME280;19126;47.472;7.850;2022-08-14T02:07:54;96094.22;;;13.37;100.00
32761;BME280;19126;47.472;7.850;2022-08-14T02:10:21;96075.34;;;13.33;100.00
32761;BME280;19126;47.472;7.850;2022-08-14T02:12:48;96086.13;;;13.25;100.00
32761;BME280;19126;47.472;7.850;2022-08-14T02:15:17;96084.09;;;13.27;100.00
32761;BME280;19126;47.472;7.850;2022-08-14T02:17:47;96079.63;;;13.21;100.00
32761;BME280;19126;47.472;7.850;2022-08-14T02:20:14;96074.13;;;13.22;100.00
32761;BME280;19126;47.472;7.850;2022-08-14T02:22:43;96072.50;;;13.21;100.00
32761;BME280;19126;47.472;7.850;2022-08-14T02:25:10;96062.97;;;13.20;100.00
32761;BME280;19126;47.472;7.850;2022-08-14T02:27:37;96049.81;;;13.13;100.00
32761;BME280;19126;47.472;7.850;2022-08-14T02:30:08;96060.56;;;13.18;100.00
32761;BME280;19126;47.472;7.850;2022-08-14T02:32:37;96055.47;;;13.17;100.00
32761;BME280;19126;47.472;7.850;2022-08-14T02:35:08;96047.16;;;13.20;100.00
32761;BME280;19126;47.472;7.850;2022-08-14T02:37:38;96047.56;;;13.24;100.00
32761;BME280;19126;47.472;7.850;2022-08-14T02:40:06;96040.25;;;13.26;100.00
32761;BME280;19126;47.472;7.850;2022-08-14T02:42:34;96041.28;;;13.18;100.00
32761;BME280;19126;47.472;7.850;2022-08-14T02:45:02;96032.94;;;13.21;100.00
32761;BME280;19126;47.472;7.850;2022-08-14T02:47:30;96047.78;;;13.15;100.00
32761;BME280;19126;47.472;7.850;2022-08-14T02:50:00;96044.91;;;13.17;100.00
32761;BME280;19126;47.472;7.850;2022-08-14T02:52:27;96035.81;;;13.13;100.00
32761;BME280;19126;47.472;7.850;2022-08-14T02:54:54;96041.47;;;13.10;100.00
32761;BME280;19126;47.472;7.850;2022-08-14T02:57:22;96039.84;;;13.09;100.00
32761;BME280;19126;47.472;7.850;2022-08-14T02:59:50;96043.91;;;13.04;100.00
32761;BME280;19126;47.472;7.850;2022-08-14T03:02:18;96043.13;;;12.97;100.00
32761;BME280;19126;47.472;7.850;2022-08-14T03:04:45;96037.63;;;12.92;100.00
32761;BME280;19126;47.472;7.850;2022-08-14T03:07:14;96039.66;;;12.90;100.00
32761;BME280;19126;47.472;7.850;2022-08-14T03:09:41;96029.72;;;12.92;100.00
32761;BME280;19126;47.472;7.850;2022-08-14T03:12:08;96026.72;;;12.88;100.00
32761;BME280;19126;47.472;7.850;2022-08-14T03:14:37;96026.09;;;12.86;100.00
32761;BME280;19126;47.472;7.850;2022-08-14T03:17:09;96020.81;;;12.86;100.00
32761;BME280;19126;47.472;7.850;2022-08-14T03:19:40;96014.94;;;12.84;100.00
32761;BME280;19126;47.472;7.850;2022-08-14T03:22:07;96016.38;;;12.80;100.00
32761;BME280;19126;47.472;7.850;2022-08-14T03:24:35;96022.03;;;12.84;100.00
32761;BME280;19126;47.472;7.850;2022-08-14T03:27:03;96017.78;;;12.83;100.00
32761;BME280;19126;47.472;7.850;2022-08-14T03:29:31;96019.81;;;12.81;100.00
32761;BME280;19126;47.472;7.850;2022-08-14T03:31:58;96015.53;;;12.80;100.00
32761;BME280;19126;47.472;7.850;2022-08-14T03:34:25;96007.03;;;12.78;100.00
32761;BME280;19126;47.472;7.850;2022-08-14T03:36:53;96009.28;;;12.74;100.00
32761;BME280;19126;47.472;7.850;2022-08-14T03:39:23;96017.59;;;12.71;100.00
32761;BME280;19126;47.472;7.850;2022-08-14T03:41:55;96022.84;;;12.71;100.00
32761;BME280;19126;47.472;7.850;2022-08-14T03:44:23;96023.03;;;12.69;100.00
32761;BME280;19126;47.472;7.850;2022-08-14T03:46:51;96017.38;;;12.66;100.00
32761;BME280;19126;47.472;7.850;2022-08-14T03:49:21;96016.56;;;12.65;100.00
32761;BME280;19126;47.472;7.850;2022-08-14T03:51:49;96015.94;;;12.63;100.00
32761;BME280;19126;47.472;7.850;2022-08-14T03:54:16;96022.84;;;12.64;100.00
32761;BME280;19126;47.472;7.850;2022-08-14T03:56:43;96017.56;;;12.64;100.00
32761;BME280;19126;47.472;7.850;2022-08-14T03:59:12;96024.69;;;12.64;100.00
32761;BME280;19126;47.472;7.850;2022-08-14T04:01:39;96016.78;;;12.64;100.00
32761;BME280;19126;47.472;7.850;2022-08-14T04:04:07;96022.84;;;12.64;100.00
32761;BME280;19126;47.472;7.850;2022-08-14T04:06:37;96012.91;;;12.59;100.00
32761;BME280;19126;47.472;7.850;2022-08-14T04:09:05;96020.00;;;12.59;100.00
32761;BME280;19126;47.472;7.850;2022-08-14T04:11:33;96015.75;;;12.58;100.00
32761;BME280;19126;47.472;7.850;2022-08-14T04:14:01;96017.75;;;12.56;100.00
32761;BME280;19126;47.472;7.850;2022-08-14T04:16:31;96017.75;;;12.56;100.00
32761;BME280;19126;47.472;7.850;2022-08-14T04:18:59;96019.38;;;12.57;100.00
32761;BME280;19126;47.472;7.850;2022-08-14T04:21:29;96012.50;;;12.56;100.00
32761;BME280;19126;47.472;7.850;2022-08-14T04:23:59;96018.16;;;12.53;100.00
32761;BME280;19126;47.472;7.850;2022-08-14T04:26:29;96017.38;;;12.52;100.00
32761;BME280;19126;47.472;7.850;2022-08-14T04:28:57;96021.03;;;12.51;100.00
32761;BME280;19126;47.472;7.850;2022-08-14T04:31:25;96026.50;;;12.56;100.00
32761;BME280;19126;47.472;7.850;2022-08-14T04:33:53;96031.75;;;12.63;100.00
32761;BME280;19126;47.472;7.850;2022-08-14T04:36:21;96034.19;;;12.65;100.00
32761;BME280;19126;47.472;7.850;2022-08-14T04:38:48;96043.31;;;12.69;100.00
32761;BME280;19126;47.472;7.850;2022-08-14T04:41:32;96041.09;;;12.66;100.00
32761;BME280;19126;47.472;7.850;2022-08-14T04:44:17;96040.09;;;12.67;100.00
32761;BME280;19126;47.472;7.850;2022-08-14T04:46:45;96037.84;;;12.70;100.00
32761;BME280;19126;47.472;7.850;2022-08-14T04:49:28;96039.88;;;12.75;100.00
32761;BME280;19126;47.472;7.850;2022-08-14T04:51:55;96045.53;;;12.79;100.00
32761;BME280;19126;47.472;7.850;2022-08-14T04:54:23;96042.31;;;12.77;100.00
32761;BME280;19126;47.472;7.850;2022-08-14T04:56:51;96042.91;;;12.79;100.00
32761;BME280;19126;47.472;7.850;2022-08-14T04:59:19;96043.34;;;12.82;100.00
32761;BME280;19126;47.472;7.850;2022-08-14T05:01:47;96029.53;;;12.87;100.00
32761;BME280;19126;47.472;7.850;2022-08-14T05:04:14;96030.97;;;12.89;100.00
32761;BME280;19126;47.472;7.850;2022-08-14T05:06:44;96027.69;;;12.94;100.00
32761;BME280;19126;47.472;7.850;2022-08-14T05:09:11;96024.47;;;12.99;100.00
32761;BME280;19126;47.472;7.850;2022-08-14T05:11:38;96019.38;;;12.97;100.00
32761;BME280;19126;47.472;7.850;2022-08-14T05:14:05;96022.03;;;13.04;100.00
32761;BME280;19126;47.472;7.850;2022-08-14T05:16:32;96016.94;;;13.02;100.00
32761;BME280;19126;47.472;7.850;2022-08-14T05:19:00;96003.97;;;13.08;100.00
32761;BME280;19126;47.472;7.850;2022-08-14T05:21:29;95997.28;;;13.05;100.00
32761;BME280;19126;47.472;7.850;2022-08-14T05:23:58;95984.28;;;13.10;100.00
32761;BME280;19126;47.472;7.850;2022-08-14T05:26:25;95977.19;;;13.11;100.00
32761;BME280;19126;47.472;7.850;2022-08-14T05:28:52;95977.41;;;13.09;100.00
32761;BME280;19126;47.472;7.850;2022-08-14T05:31:19;95968.25;;;13.12;100.00
32761;BME280;19126;47.472;7.850;2022-08-14T05:33:46;95970.69;;;13.13;100.00
32761;BME280;19126;47.472;7.850;2022-08-14T05:36:14;95982.22;;;13.19;100.00
32761;BME280;19126;47.472;7.850;2022-08-14T05:38:43;95971.88;;;13.31;100.00
32761;BME280;19126;47.472;7.850;2022-08-14T05:41:15;95959.03;;;13.55;100.00
32761;BME280;19126;47.472;7.850;2022-08-14T05:43:43;95958.22;;;14.00;100.00
32761;BME280;19126;47.472;7.850;2022-08-14T05:46:14;95946.97;;;14.69;100.00
32761;BME280;19126;47.472;7.850;2022-08-14T05:48:46;95948.13;;;15.35;100.00
32761;BME280;19126;47.472;7.850;2022-08-14T05:51:13;95942.13;;;15.96;100.00
32761;BME280;19126;47.472;7.850;2022-08-14T05:53:40;95944.09;;;16.55;96.40
32761;BME280;19126;47.472;7.850;2022-08-14T05:56:08;95939.53;;;17.22;88.70
32761;BME280;19126;47.472;7.850;2022-08-14T05:58:37;95941.69;;;17.78;85.97
32761;BME280;19126;47.472;7.850;2022-08-14T06:01:04;95942.78;;;18.40;79.90
32761;BME280;19126;47.472;7.850;2022-08-14T06:03:32;95934.69;;;18.98;79.64
32761;BME280;19126;47.472;7.850;2022-08-14T06:05:59;95939.13;;;19.54;73.50
32761;BME280;19126;47.472;7.850;2022-08-14T06:08:28;95933.03;;;19.81;66.63
32761;BME280;19126;47.472;7.850;2022-08-14T06:10:58;95933.78;;;20.26;64.14
32761;BME280;19126;47.472;7.850;2022-08-14T06:13:28;95948.34;;;20.78;65.64
32761;BME280;19126;47.472;7.850;2022-08-14T06:15:57;95948.13;;;21.28;64.69
32761;BME280;19126;47.472;7.850;2022-08-14T06:18:25;95947.81;;;21.72;62.04
32761;BME280;19126;47.472;7.850;2022-08-14T06:20:52;95948.69;;;22.09;60.36
32761;BME280;19126;47.472;7.850;2022-08-14T06:23:20;95951.13;;;22.26;56.32
32761;BME280;19126;47.472;7.850;2022-08-14T06:25:47;95952.25;;;22.46;56.69
32761;BME280;19126;47.472;7.850;2022-08-14T06:28:17;95950.94;;;22.69;55.77
32761;BME280;19126;47.472;7.850;2022-08-14T06:30:46;95955.22;;;22.70;55.47
32761;BME280;19126;47.472;7.850;2022-08-14T06:33:17;95955.44;;;22.84;53.86
32761;BME280;19126;47.472;7.850;2022-08-14T06:35:46;95947.13;;;22.44;55.23
32761;BME280;19126;47.472;7.850;2022-08-14T06:38:16;95945.81;;;22.83;56.25
32761;BME280;19126;47.472;7.850;2022-08-14T06:40:44;95940.94;;;23.16;55.71
32761;BME280;19126;47.472;7.850;2022-08-14T06:43:13;95944.84;;;23.60;53.89
32761;BME280;19126;47.472;7.850;2022-08-14T06:45:42;95944.13;;;24.05;53.19
32761;BME280;19126;47.472;7.850;2022-08-14T06:48:16;95956.53;;;23.85;51.63
32761;BME280;19126;47.472;7.850;2022-08-14T06:50:44;95955.22;;;24.33;51.50
32761;BME280;19126;47.472;7.850;2022-08-14T06:53:12;95948.72;;;24.39;50.14
32761;BME280;19126;47.472;7.850;2022-08-14T06:55:41;95951.94;;;24.01;49.98
32761;BME280;19126;47.472;7.850;2022-08-14T06:58:11;95951.78;;;23.66;51.17
32761;BME280;19126;47.472;7.850;2022-08-14T07:00:40;95959.44;;;23.99;51.52
32761;BME280;19126;47.472;7.850;2022-08-14T07:03:29;95973.41;;;23.96;51.55
32761;BME280;19126;47.472;7.850;2022-08-14T07:06:14;95977.50;;;24.33;52.47
32761;BME280;19126;47.472;7.850;2022-08-14T07:08:42;95986.63;;;24.32;52.11
32761;BME280;19126;47.472;7.850;2022-08-14T07:11:10;95988.41;;;23.97;55.09
32761;BME280;19126;47.472;7.850;2022-08-14T07:13:38;95990.84;;;23.88;51.05
32761;BME280;19126;47.472;7.850;2022-08-14T07:16:06;95999.28;;;23.50;52.75
32761;BME280;19126;47.472;7.850;2022-08-14T07:18:35;95989.66;;;24.15;51.75
32761;BME280;19126;47.472;7.850;2022-08-14T07:21:04;95983.75;;;24.58;53.20
32761;BME280;19126;47.472;7.850;2022-08-14T07:23:31;95964.59;;;24.70;51.02
32761;BME280;19126;47.472;7.850;2022-08-14T07:26:02;95929.63;;;25.34;50.51
32761;BME280;19126;47.472;7.850;2022-08-14T07:28:32;95934.41;;;25.86;48.98
32761;BME280;19126;47.472;7.850;2022-08-14T07:31:02;95948.81;;;26.14;48.18
32761;BME280;19126;47.472;7.850;2022-08-14T07:33:32;95960.78;;;26.03;46.22
32761;BME280;19126;47.472;7.850;2022-08-14T07:36:04;95969.94;;;26.26;48.37
32761;BME280;19126;47.472;7.850;2022-08-14T07:38:32;95976.25;;;26.36;46.21
32761;BME280;19126;47.472;7.850;2022-08-14T07:40:59;95969.78;;;26.37;47.68
32761;BME280;19126;47.472;7.850;2022-08-14T07:43:26;95955.66;;;26.78;46.25
32761;BME280;19126;47.472;7.850;2022-08-14T07:45:54;95962.38;;;27.28;44.77
32761;BME280;19126;47.472;7.850;2022-08-14T07:48:21;95967.53;;;27.10;44.92
32761;BME280;19126;47.472;7.850;2022-08-14T07:50:48;95966.19;;;26.60;45.38
32761;BME280;19126;47.472;7.850;2022-08-14T07:53:17;95955.25;;;26.71;44.42
32761;BME280;19126;47.472;7.850;2022-08-14T07:55:47;95948.94;;;26.95;46.80
32761;BME280;19126;47.472;7.850;2022-08-14T07:58:14;95949.47;;;27.11;45.62
32761;BME280;19126;47.472;7.850;2022-08-14T08:00:42;95942.78;;;27.08;46.99
32761;BME280;19126;47.472;7.850;2022-08-14T08:03:11;95943.28;;;27.38;46.22
32761;BME280;19126;47.472;7.850;2022-08-14T08:05:40;95944.81;;;27.58;43.28
32761;BME280;19126;47.472;7.850;2022-08-14T08:08:08;95950.94;;;27.50;44.69
32761;BME280;19126;47.472;7.850;2022-08-14T08:10:36;95940.94;;;27.64;44.09
32761;BME280;19126;47.472;7.850;2022-08-14T08:13:09;95948.19;;;27.78;41.43
32761;BME280;19126;47.472;7.850;2022-08-14T08:15:40;95947.97;;;28.02;42.00
32761;BME280;19126;47.472;7.850;2022-08-14T08:18:11;95934.00;;;27.86;40.39
32761;BME280;19126;47.472;7.850;2022-08-14T08:20:41;95934.31;;;27.85;41.49
32761;BME280;19126;47.472;7.850;2022-08-14T08:23:09;95937.16;;;28.02;42.49
32761;BME280;19126;47.472;7.850;2022-08-14T08:25:41;95941.66;;;28.07;42.53
32761;BME280;19126;47.472;7.850;2022-08-14T08:28:12;95936.41;;;27.46;41.68
32761;BME280;19126;47.472;7.850;2022-08-14T08:30:44;95947.59;;;27.39;43.92
32761;BME280;19126;47.472;7.850;2022-08-14T08:33:13;95955.34;;;26.99;42.79
32761;BME280;19126;47.472;7.850;2022-08-14T08:35:42;95938.53;;;27.49;43.75
32761;BME280;19126;47.472;7.850;2022-08-14T08:38:13;95950.25;;;28.09;43.93
32761;BME280;19126;47.472;7.850;2022-08-14T08:40:45;95950.69;;;28.85;45.06
32761;BME280;19126;47.472;7.850;2022-08-14T08:43:20;95942.38;;;29.04;40.94
32761;BME280;19126;47.472;7.850;2022-08-14T08:45:57;95946.75;;;29.63;39.31
32761;BME280;19126;47.472;7.850;2022-08-14T08:48:26;95951.09;;;29.81;39.60
32761;BME280;19126;47.472;7.850;2022-08-14T08:50:56;95947.59;;;29.81;40.82
32761;BME280;19126;47.472;7.850;2022-08-14T08:53:30;95943.84;;;30.00;39.20
32761;BME280;19126;47.472;7.850;2022-08-14T08:55:59;95945.56;;;29.95;39.35
32761;BME280;19126;47.472;7.850;2022-08-14T08:58:27;95941.06;;;29.82;39.73
32761;BME280;19126;47.472;7.850;2022-08-14T09:00:57;95941.56;;;29.93;38.52
32761;BME280;19126;47.472;7.850;2022-08-14T09:03:27;95949.97;;;29.82;40.29
32761;BME280;19126;47.472;7.850;2022-08-14T09:05:56;95942.66;;;29.92;39.55
32761;BME280;19126;47.472;7.850;2022-08-14T09:08:26;95940.63;;;29.97;38.70
32761;BME280;19126;47.472;7.850;2022-08-14T09:10:55;95947.19;;;30.32;38.41
32761;BME280;19126;47.472;7.850;2022-08-14T09:13:25;95937.22;;;29.74;38.51
32761;BME280;19126;47.472;7.850;2022-08-14T09:15:53;95935.78;;;29.68;37.84
32761;BME280;19126;47.472;7.850;2022-08-14T09:18:22;95935.72;;;30.26;37.99
32761;BME280;19126;47.472;7.850;2022-08-14T09:20:54;95934.44;;;30.41;38.73
32761;BME280;19126;47.472;7.850;2022-08-14T09:23:22;95923.44;;;30.20;36.70
32761;BME280;19126;47.472;7.850;2022-08-14T09:25:50;95921.38;;;30.17;37.53
32761;BME280;19126;47.472;7.850;2022-08-14T09:28:20;95921.38;;;30.25;38.30
32761;BME280;19126;47.472;7.850;2022-08-14T09:30:53;95919.00;;;30.59;38.83
32761;BME280;19126;47.472;7.850;2022-08-14T09:33:46;95912.91;;;30.71;36.64
32761;BME280;19126;47.472;7.850;2022-08-14T09:39:40;95920.56;;;30.34;36.38
32761;BME280;19126;47.472;7.850;2022-08-14T09:42:32;95909.88;;;30.37;37.51
32761;BME280;19126;47.472;7.850;2022-08-14T09:45:14;95906.22;;;30.42;38.30
32761;BME280;19126;47.472;7.850;2022-08-14T09:47:47;95904.84;;;29.51;38.08
32761;BME280;19126;47.472;7.850;2022-08-14T09:50:18;95906.81;;;29.19;40.29
32761;BME280;19126;47.472;7.850;2022-08-14T09:52:50;95904.53;;;29.13;40.74
32761;BME280;19126;47.472;7.850;2022-08-14T09:55:19;95902.06;;;29.25;41.22
32761;BME280;19126;47.472;7.850;2022-08-14T09:57:47;95907.09;;;29.49;40.84
32761;BME280;19126;47.472;7.850;2022-08-14T10:00:17;95907.03;;;30.07;41.69
32761;BME280;19126;47.472;7.850;2022-08-14T10:02:54;95905.91;;;30.08;39.61
32761;BME280;19126;47.472;7.850;2022-08-14T10:05:31;95904.31;;;30.60;41.07
32761;BME280;19126;47.472;7.850;2022-08-14T10:08:01;95893.94;;;30.45;39.08
32761;BME280;19126;47.472;7.850;2022-08-14T10:10:32;95887.88;;;30.65;40.38
32761;BME280;19126;47.472;7.850;2022-08-14T10:13:01;95889.31;;;30.54;40.32
32761;BME280;19126;47.472;7.850;2022-08-14T10:15:30;95877.88;;;30.96;40.34
32761;BME280;19126;47.472;7.850;2022-08-14T10:18:08;95881.59;;;31.30;39.98
32761;BME280;19126;47.472;7.850;2022-08-14T10:20:40;95874.47;;;30.51;39.98
32761;BME280;19126;47.472;7.850;2022-08-14T10:23:13;95879.84;;;30.87;40.52
32761;BME280;19126;47.472;7.850;2022-08-14T10:25:43;95872.72;;;30.55;39.64
32761;BME280;19126;47.472;7.850;2022-08-14T10:28:11;95874.09;;;30.88;39.32
32761;BME280;19126;47.472;7.850;2022-08-14T10:30:44;95871.88;;;30.81;42.48
32761;BME280;19126;47.472;7.850;2022-08-14T10:33:26;95863.31;;;31.09;41.57
32761;BME280;19126;47.472;7.850;2022-08-14T10:35:55;95873.88;;;31.02;40.21
32761;BME280;19126;47.472;7.850;2022-08-14T10:38:27;95872.88;;;30.68;41.28
32761;BME280;19126;47.472;7.850;2022-08-14T10:40:54;95871.03;;;30.98;41.70
32761;BME280;19126;47.472;7.850;2022-08-14T10:43:24;95876.41;;;30.68;41.69
32761;BME280;19126;47.472;7.850;2022-08-14T10:45:54;95862.38;;;30.49;42.31
32761;BME280;19126;47.472;7.850;2022-08-14T10:48:24;95864.94;;;30.54;41.86
32761;BME280;19126;47.472;7.850;2022-08-14T10:50:52;95873.53;;;30.56;42.34
32761;BME280;19126;47.472;7.850;2022-08-14T10:53:31;95861.75;;;30.43;41.79
32761;BME280;19126;47.472;7.850;2022-08-14T10:56:08;95874.19;;;30.53;42.06
32761;BME280;19126;47.472;7.850;2022-08-14T10:58:38;95879.00;;;30.95;41.58
32761;BME280;19126;47.472;7.850;2022-08-14T11:01:06;95878.78;;;31.18;41.41
32761;BME280;19126;47.472;7.850;2022-08-14T11:03:39;95878.56;;;31.32;41.73
32761;BME280;19126;47.472;7.850;2022-08-14T11:06:14;95878.28;;;31.24;41.68
32761;BME280;19126;47.472;7.850;2022-08-14T11:08:43;95883.16;;;31.61;40.61
32761;BME280;19126;47.472;7.850;2022-08-14T11:11:10;95877.19;;;31.47;40.66
32761;BME280;19126;47.472;7.850;2022-08-14T11:13:41;95886.94;;;31.48;41.96
32761;BME280;19126;47.472;7.850;2022-08-14T11:16:13;95896.69;;;31.10;41.54
32761;BME280;19126;47.472;7.850;2022-08-14T11:18:47;95897.34;;;30.98;41.82
32761;BME280;19126;47.472;7.850;2022-08-14T11:21:17;95894.91;;;30.66;42.64
32761;BME280;19126;47.472;7.850;2022-08-14T11:23:48;95904.63;;;30.41;42.98
32761;BME280;19126;47.472;7.850;2022-08-14T11:26:17;95906.53;;;29.96;42.79
32761;BME280;19126;47.472;7.850;2022-08-14T11:28:47;95914.00;;;29.91;42.23
32761;BME280;19126;47.472;7.850;2022-08-14T11:31:17;95911.19;;;30.05;41.17
32761;BME280;19126;47.472;7.850;2022-08-14T11:33:50;95910.66;;;29.85;39.46
32761;BME280;19126;47.472;7.850;2022-08-14T11:36:24;95897.63;;;30.40;40.58
32761;BME280;19126;47.472;7.850;2022-08-14T11:38:53;95913.31;;;30.91;39.74
32761;BME280;19126;47.472;7.850;2022-08-14T11:41:21;95905.84;;;30.88;39.41
32761;BME280;19126;47.472;7.850;2022-08-14T11:43:48;95894.16;;;31.05;41.23
32761;BME280;19126;47.472;7.850;2022-08-14T11:46:16;95901.00;;;31.02;38.72
32761;BME280;19126;47.472;7.850;2022-08-14T11:48:49;95900.63;;;30.56;38.15
32761;BME280;19126;47.472;7.850;2022-08-14T11:51:19;95898.09;;;30.16;39.03
32761;BME280;19126;47.472;7.850;2022-08-14T11:53:53;95891.06;;;29.71;42.12
32761;BME280;19126;47.472;7.850;2022-08-14T11:56:22;95897.22;;;29.53;41.81
32761;BME280;19126;47.472;7.850;2022-08-14T11:58:52;95892.16;;;29.61;41.92
32761;BME280;19126;47.472;7.850;2022-08-14T12:01:27;95898.03;;;29.63;42.16
32761;BME280;19126;47.472;7.850;2022-08-14T12:04:08;95889.50;;;29.29;42.07
32761;BME280;19126;47.472;7.850;2022-08-14T12:06:48;95892.22;;;29.29;42.38
32761;BME280;19126;47.472;7.850;2022-08-14T12:09:28;95893.94;;;29.25;42.65
32761;BME280;19126;47.472;7.850;2022-08-14T12:11:55;95891.16;;;29.07;41.03
32761;BME280;19126;47.472;7.850;2022-08-14T12:14:23;95888.22;;;29.27;41.35
32761;BME280;19126;47.472;7.850;2022-08-14T12:16:59;95880.59;;;29.29;40.99
32761;BME280;19126;47.472;7.850;2022-08-14T12:19:28;95879.72;;;29.51;41.72
32761;BME280;19126;47.472;7.850;2022-08-14T12:21:56;95867.81;;;29.70;44.05
32761;BME280;19126;47.472;7.850;2022-08-14T12:24:27;95879.75;;;29.95;43.81
32761;BME280;19126;47.472;7.850;2022-08-14T12:26:55;95877.56;;;30.06;43.02
32761;BME280;19126;47.472;7.850;2022-08-14T12:29:23;95871.50;;;30.09;45.85
32761;BME280;19126;47.472;7.850;2022-08-14T12:31:58;95875.03;;;30.01;46.04
32761;BME280;19126;47.472;7.850;2022-08-14T12:34:33;95881.69;;;30.03;46.31
32761;BME280;19126;47.472;7.850;2022-08-14T12:37:04;95884.69;;;29.84;45.71
32761;BME280;19126;47.472;7.850;2022-08-14T12:39:32;95877.03;;;29.77;47.78
32761;BME280;19126;47.472;7.850;2022-08-14T12:41:59;95874.63;;;29.67;46.86
32761;BME280;19126;47.472;7.850;2022-08-14T12:44:32;95892.13;;;29.52;46.48
32761;BME280;19126;47.472;7.850;2022-08-14T12:47:05;95874.53;;;29.23;47.07
32761;BME280;19126;47.472;7.850;2022-08-14T12:49:36;95882.31;;;29.16;46.70
32761;BME280;19126;47.472;7.850;2022-08-14T12:52:04;95874.56;;;28.91;47.34
32761;BME280;19126;47.472;7.850;2022-08-14T12:54:33;95880.53;;;28.79;46.42
32761;BME280;19126;47.472;7.850;2022-08-14T12:57:06;95894.19;;;28.51;47.52
32761;BME280;19126;47.472;7.850;2022-08-14T12:59:34;95888.50;;;28.30;45.94
32761;BME280;19126;47.472;7.850;2022-08-14T13:02:02;95898.19;;;28.31;43.84
32761;BME280;19126;47.472;7.850;2022-08-14T13:04:29;95886.94;;;28.15;43.31
32761;BME280;19126;47.472;7.850;2022-08-14T13:07:04;95886.66;;;28.17;43.30
32761;BME280;19126;47.472;7.850;2022-08-14T13:09:34;95899.06;;;28.04;41.83
32761;BME280;19126;47.472;7.850;2022-08-14T13:12:04;95899.06;;;28.04;42.28
32761;BME280;19126;47.472;7.850;2022-08-14T13:14:31;95891.56;;;28.15;42.20